createdAt,value
2022-07-30T00:04:22.569Z,17.20
2022-07-30T00:09:29.954Z,17.00
2022-07-30T00:14:41.981Z,17.10
2022-07-30T00:19:49.221Z,17.20
2022-07-30T00:24:59.536Z,17.00
2022-07-30T00:30:10.466Z,16.90
2022-07-30T00:35:21.226Z,16.90
2022-07-30T00:40:33.705Z,17.00
2022-07-30T00:45:44.417Z,17.00
2022-07-30T00:50:57.548Z,17.20
2022-07-30T00:56:06.805Z,17.20
2022-07-30T01:01:15.689Z,17.40
2022-07-30T01:06:26.361Z,17.30
2022-07-30T01:11:39.580Z,17.20
2022-07-30T01:16:50.130Z,17.30
2022-07-30T01:22:06.722Z,17.20
2022-07-30T01:27:22.902Z,17.40
2022-07-30T01:32:38.894Z,17.20
2022-07-30T01:37:49.865Z,17.00
2022-07-30T01:42:59.858Z,16.90
2022-07-30T01:48:12.589Z,16.80
2022-07-30T01:53:25.189Z,16.70
2022-07-30T01:58:43.105Z,16.70
2022-07-30T02:03:53.380Z,16.80
2022-07-30T02:09:10.876Z,16.80
2022-07-30T02:14:25.312Z,16.70
2022-07-30T02:19:37.602Z,16.90
2022-07-30T02:24:49.854Z,16.80
2022-07-30T02:30:01.345Z,16.90
2022-07-30T02:35:14.304Z,17.00
2022-07-30T02:40:25.734Z,16.90
2022-07-30T02:45:39.185Z,16.80
2022-07-30T02:50:49.913Z,17.20
2022-07-30T02:56:02.633Z,17.10
2022-07-30T03:01:14.464Z,17.00
2022-07-30T03:06:25.628Z,16.80
2022-07-30T03:11:34.455Z,17.20
2022-07-30T03:16:48.070Z,17.30
2022-07-30T03:21:59.112Z,17.20
2022-07-30T03:27:11.052Z,17.30
2022-07-30T03:32:21.050Z,17.40
2022-07-30T03:37:35.685Z,17.30
2022-07-30T03:42:46.405Z,17.00
2022-07-30T03:47:59.837Z,16.90
2022-07-30T03:53:12.692Z,17.00
2022-07-30T03:58:24.440Z,17.10
2022-07-30T04:03:39.282Z,17.10
2022-07-30T04:08:47.386Z,17.20
2022-07-30T04:14:00.702Z,17.00
2022-07-30T04:19:13.905Z,17.10
2022-07-30T04:24:26.294Z,17.20
2022-07-30T04:29:34.804Z,17.10
2022-07-30T04:34:54.255Z,17.20
2022-07-30T04:40:03.833Z,17.20
2022-07-30T04:45:34.162Z,17.20
2022-07-30T04:50:48.739Z,17.30
2022-07-30T04:56:00.999Z,17.40
2022-07-30T05:01:14.058Z,17.40
2022-07-30T05:06:29.157Z,17.40
2022-07-30T05:11:41.698Z,17.40
2022-07-30T05:16:53.534Z,17.20
2022-07-30T05:22:06.401Z,17.40
2022-07-30T05:27:13.979Z,17.40
2022-07-30T05:32:25.724Z,17.40
2022-07-30T05:37:36.004Z,17.40
2022-07-30T05:42:45.565Z,17.40
2022-07-30T05:47:54.975Z,17.50
2022-07-30T05:53:03.199Z,17.30
2022-07-30T05:58:12.254Z,17.40
2022-07-30T06:03:22.615Z,17.40
2022-07-30T06:08:30.845Z,17.40
2022-07-30T06:13:41.442Z,17.40
2022-07-30T06:18:50.716Z,17.40
2022-07-30T06:24:02.870Z,17.50
2022-07-30T06:29:13.773Z,17.60
2022-07-30T06:34:23.343Z,17.60
2022-07-30T06:39:55.955Z,17.50
2022-07-30T06:44:41.430Z,17.50
2022-07-30T06:49:48.817Z,17.60
2022-07-30T06:54:58.177Z,17.40
2022-07-30T07:00:09.486Z,17.40
2022-07-30T07:05:16.397Z,17.60
2022-07-30T07:10:26.088Z,17.60
2022-07-30T07:15:37.037Z,17.70
2022-07-30T07:20:47.038Z,17.70
2022-07-30T07:25:56.611Z,17.60
2022-07-30T07:31:05.741Z,17.70
2022-07-30T07:36:16.826Z,17.70
2022-07-30T07:41:26.439Z,17.80
2022-07-30T07:46:41.680Z,17.90
2022-07-30T07:51:52.823Z,17.90
2022-07-30T07:57:03.056Z,17.90
2022-07-30T08:02:10.987Z,17.80
2022-07-30T08:07:18.059Z,18.10
2022-07-30T08:12:26.301Z,18.20
2022-07-30T08:17:34.508Z,18.10
2022-07-30T08:22:44.775Z,18.30
2022-07-30T08:27:52.630Z,18.10
2022-07-30T08:33:00.179Z,18.20
2022-07-30T08:38:12.894Z,18.20
2022-07-30T08:43:24.493Z,18.40
2022-07-30T08:48:34.948Z,18.40
2022-07-30T08:53:43.999Z,18.50
2022-07-30T08:58:55.218Z,18.40
2022-07-30T09:04:03.708Z,18.00
2022-07-30T09:09:11.480Z,18.20
2022-07-30T09:14:20.506Z,18.30
2022-07-30T09:19:29.891Z,18.30
2022-07-30T09:24:45.276Z,18.50
2022-07-30T09:30:03.685Z,18.70
2022-07-30T09:35:24.394Z,19.00
2022-07-30T09:40:32.333Z,19.10
2022-07-30T09:45:56.689Z,19.20
2022-07-30T09:51:05.010Z,19.10
2022-07-30T09:56:34.270Z,19.00
2022-07-30T10:02:00.944Z,19.30
2022-07-30T10:07:10.427Z,19.40
2022-07-30T10:12:24.029Z,19.30
2022-07-30T10:17:37.011Z,19.30
2022-07-30T10:22:51.260Z,19.40
2022-07-30T10:28:02.948Z,19.10
2022-07-30T10:33:13.395Z,19.30
2022-07-30T10:38:27.149Z,19.50
2022-07-30T10:44:12.493Z,19.30
2022-07-30T10:49:28.892Z,19.30
2022-07-30T10:54:44.296Z,19.30
2022-07-30T11:00:04.070Z,19.50
2022-07-30T11:05:43.958Z,19.60
2022-07-30T11:10:47.690Z,19.60
2022-07-30T11:16:03.047Z,19.70
2022-07-30T11:21:23.100Z,20.10
2022-07-30T11:26:50.475Z,20.00
2022-07-30T11:32:05.304Z,20.10
2022-07-30T11:37:31.713Z,20.20
2022-07-30T11:42:36.656Z,20.30
2022-07-30T11:47:47.532Z,20.30
2022-07-30T11:53:07.032Z,20.60
2022-07-30T11:58:40.226Z,20.80
2022-07-30T12:03:48.655Z,21.10
2022-07-30T12:08:59.282Z,20.80
2022-07-30T12:14:08.780Z,20.80
2022-07-30T12:19:16.440Z,20.30
2022-07-30T12:24:49.731Z,21.10
2022-07-30T12:30:07.914Z,21.50
2022-07-30T12:35:37.057Z,20.90
2022-07-30T12:41:15.633Z,21.00
2022-07-30T12:46:55.432Z,21.50
2022-07-30T12:52:13.282Z,21.50
2022-07-30T12:57:25.813Z,22.20
2022-07-30T13:02:51.833Z,22.80
2022-07-30T13:08:22.057Z,22.70
2022-07-30T13:13:33.143Z,23.20
2022-07-30T13:18:41.915Z,23.00
2022-07-30T13:23:48.824Z,22.20
2022-07-30T13:28:58.695Z,22.00
2022-07-30T13:34:05.121Z,22.80
2022-07-30T13:39:12.950Z,22.90
2022-07-30T13:44:19.783Z,22.00
2022-07-30T13:49:28.329Z,21.70
2022-07-30T13:54:37.380Z,21.60
2022-07-30T13:59:44.074Z,22.10
2022-07-30T14:04:52.479Z,22.60
2022-07-30T14:10:00.810Z,23.00
2022-07-30T14:15:17.668Z,22.70
2022-07-30T14:20:23.147Z,23.20
2022-07-30T14:25:30.277Z,23.20
2022-07-30T14:30:38.138Z,22.50
2022-07-30T14:35:45.680Z,22.10
2022-07-30T14:40:52.901Z,21.20
2022-07-30T14:46:00.290Z,21.20
2022-07-30T14:51:16.200Z,21.20
2022-07-30T14:56:18.260Z,21.10
2022-07-30T15:01:25.822Z,20.70
2022-07-30T15:06:33.841Z,20.40
2022-07-30T15:12:07.581Z,20.80
2022-07-30T15:16:49.999Z,21.10
2022-07-30T15:21:58.082Z,21.50
2022-07-30T15:27:05.949Z,20.90
2022-07-30T15:32:13.066Z,20.70
2022-07-30T15:37:22.032Z,20.90
2022-07-30T15:42:30.536Z,20.40
2022-07-30T15:47:38.070Z,20.10
2022-07-30T15:52:46.897Z,20.00
2022-07-30T15:57:55.826Z,19.90
2022-07-30T16:03:02.824Z,19.90
2022-07-30T16:08:12.584Z,20.00
2022-07-30T16:13:21.209Z,20.90
2022-07-30T16:18:27.994Z,21.00
2022-07-30T16:23:37.354Z,21.30
2022-07-30T16:28:45.541Z,21.00
2022-07-30T16:33:53.111Z,20.90
2022-07-30T16:39:01.705Z,20.70
2022-07-30T16:44:09.595Z,20.40
2022-07-30T16:49:16.985Z,20.50
2022-07-30T16:54:24.176Z,20.50
2022-07-30T16:59:31.270Z,20.50
2022-07-30T17:04:39.860Z,20.30
2022-07-30T17:09:52.485Z,20.00
2022-07-30T17:14:56.757Z,19.90
2022-07-30T17:20:06.067Z,19.70
2022-07-30T17:25:14.137Z,19.60
2022-07-30T17:30:20.968Z,20.00
2022-07-30T17:35:27.813Z,20.00
2022-07-30T17:40:34.652Z,20.20
2022-07-30T17:45:41.678Z,20.00
2022-07-30T17:50:48.351Z,20.20
2022-07-30T17:55:57.670Z,19.90
2022-07-30T18:01:05.293Z,19.80
2022-07-30T18:06:12.037Z,19.70
2022-07-30T18:11:20.161Z,19.40
2022-07-30T18:16:28.293Z,19.40
2022-07-30T18:21:38.500Z,19.20
2022-07-30T18:26:47.601Z,19.10
2022-07-30T18:31:54.324Z,19.00
2022-07-30T18:37:01.462Z,18.80
2022-07-30T18:42:09.607Z,18.50
2022-07-30T18:47:16.442Z,18.60
2022-07-30T18:52:25.018Z,18.70
2022-07-30T18:57:32.502Z,18.80
2022-07-30T19:02:41.161Z,18.80
2022-07-30T19:07:57.112Z,18.80
2022-07-30T19:12:58.222Z,18.80
2022-07-30T19:18:05.576Z,18.80
2022-07-30T19:23:14.063Z,18.80
2022-07-30T19:28:20.897Z,18.70
2022-07-30T19:33:27.618Z,18.70
2022-07-30T19:38:34.710Z,18.50
2022-07-30T19:43:55.607Z,18.50
2022-07-30T19:48:53.765Z,18.40
2022-07-30T19:54:02.604Z,18.40
2022-07-30T19:59:14.727Z,18.30
2022-07-30T20:04:20.680Z,18.10
2022-07-30T20:09:29.023Z,17.90
2022-07-30T20:14:38.138Z,17.90
2022-07-30T20:19:47.639Z,18.00
2022-07-30T20:24:56.907Z,18.00
2022-07-30T20:30:07.287Z,18.00
2022-07-30T20:35:14.175Z,17.90
2022-07-30T20:40:21.849Z,17.70
2022-07-30T20:45:37.846Z,18.10
2022-07-30T20:50:40.570Z,17.70
2022-07-30T20:55:48.262Z,17.80
2022-07-30T21:00:56.977Z,18.00
2022-07-30T21:06:04.241Z,18.10
2022-07-30T21:11:12.586Z,18.10
2022-07-30T21:16:21.832Z,17.80
2022-07-30T21:21:32.857Z,17.80
2022-07-30T21:26:37.696Z,17.80
2022-07-30T21:31:58.057Z,17.80
2022-07-30T21:36:56.808Z,18.00
2022-07-30T21:42:04.169Z,17.90
2022-07-30T21:47:12.006Z,17.70
2022-07-30T21:52:19.085Z,17.70
2022-07-30T21:57:26.608Z,17.70
2022-07-30T22:02:34.178Z,17.70
2022-07-30T22:07:42.028Z,17.50
2022-07-30T22:12:48.931Z,17.50
2022-07-30T22:23:31.802Z,17.30
2022-07-30T22:28:38.717Z,17.40
2022-07-30T22:33:49.938Z,17.30
2022-07-30T22:38:59.349Z,17.30
2022-07-30T22:44:06.389Z,17.20
2022-07-30T22:49:24.218Z,17.40
2022-07-30T22:54:25.166Z,17.40
2022-07-30T22:59:59.893Z,17.60
2022-07-30T23:04:41.338Z,17.40
2022-07-30T23:09:52.113Z,17.40
2022-07-30T23:14:57.838Z,17.30
2022-07-30T23:20:07.024Z,17.20
2022-07-30T23:25:15.848Z,17.20
2022-07-30T23:30:23.677Z,17.30
2022-07-30T23:35:33.196Z,17.20
2022-07-30T23:40:41.663Z,17.40
2022-07-30T23:45:49.177Z,17.30
2022-07-30T23:50:57.731Z,17.20
2022-07-30T23:56:05.427Z,17.30
